Miami, Florida
Traffic Map
Current Weather Conditions
Miami, Florida
Few Clouds
Few Clouds
21°
Feels Like: 21°
Wind Chill: 21° Ceiling: Unl
Heat Index: 21° Visibility: 10mi
Dew Point: 14° Wind: 5mph
Humidity: 65% Direction: 230° (SW)
Pressure: 30.12in Gusts: 0mph
Raw Report DataKMIA 230353Z 23004KT 10SM FEW040 21/14 A3012 RMK AO2 SLP200 T02110144 $
Traffic Incident Summary
Active as of:
Severity:
Category:
InformationThere was an issue retrieving the traffic information for this location. Please try a different location or try again shortly.
Advertisements
Track Severe Weather on mobile